createdAt,value
2019-02-14T00:02:35.412Z,3.20
2019-02-14T00:05:42.561Z,3.20
2019-02-14T00:08:49.588Z,3.20
2019-02-14T00:11:56.697Z,3.10
2019-02-14T00:15:03.976Z,3.00
2019-02-14T00:18:11.019Z,2.60
2019-02-14T00:21:18.116Z,2.40
2019-02-14T00:24:25.178Z,2.20
2019-02-14T00:27:32.449Z,2.20
2019-02-14T00:30:39.610Z,2.30
2019-02-14T00:33:47.025Z,2.40
2019-02-14T00:36:55.479Z,2.50
2019-02-14T00:40:02.921Z,2.40
2019-02-14T00:43:10.251Z,2.30
2019-02-14T00:46:17.515Z,2.30
2019-02-14T00:49:24.621Z,2.20
2019-02-14T00:52:31.957Z,2.10
2019-02-14T00:55:39.080Z,2.00
2019-02-14T00:58:46.286Z,1.90
2019-02-14T01:01:53.467Z,1.70
2019-02-14T01:05:00.828Z,1.70
2019-02-14T01:08:08.578Z,1.60
2019-02-14T01:11:15.587Z,1.40
2019-02-14T01:14:22.646Z,1.40
2019-02-14T01:17:29.646Z,1.40
2019-02-14T01:20:36.757Z,1.50
2019-02-14T01:23:44.011Z,1.50
2019-02-14T01:26:51.139Z,1.40
2019-02-14T01:29:58.196Z,1.30
2019-02-14T01:33:05.280Z,1.10
2019-02-14T01:36:12.477Z,1.00
2019-02-14T01:39:19.742Z,1.10
2019-02-14T01:42:26.846Z,1.30
2019-02-14T01:45:33.945Z,1.40
2019-02-14T01:48:41.023Z,1.30
2019-02-14T01:51:48.047Z,1.10
2019-02-14T01:54:55.507Z,0.90
2019-02-14T01:58:02.719Z,0.80
2019-02-14T02:01:09.917Z,0.80
2019-02-14T02:04:17.014Z,0.90
2019-02-14T02:07:24.153Z,0.90
2019-02-14T02:10:31.369Z,0.80
2019-02-14T02:13:38.467Z,0.70
2019-02-14T02:16:45.532Z,0.60
2019-02-14T02:19:52.503Z,0.70
2019-02-14T02:22:59.584Z,0.60
2019-02-14T02:26:06.725Z,0.70
2019-02-14T02:29:13.713Z,0.70
2019-02-14T02:32:20.622Z,0.70
2019-02-14T02:35:27.676Z,0.80
2019-02-14T02:38:34.815Z,0.90
2019-02-14T02:41:41.941Z,0.90
2019-02-14T02:44:52.097Z,0.90
2019-02-14T02:47:59.192Z,0.90
2019-02-14T02:51:06.182Z,0.80
2019-02-14T02:54:13.158Z,0.70
2019-02-14T02:57:20.542Z,0.60
2019-02-14T03:00:27.832Z,0.60
2019-02-14T03:03:34.881Z,0.60
2019-02-14T03:06:41.869Z,0.40
2019-02-14T03:09:49.149Z,0.30
2019-02-14T03:12:56.136Z,0.20
2019-02-14T03:16:03.238Z,0.30
2019-02-14T03:19:10.298Z,0.30
2019-02-14T03:22:17.507Z,0.30
2019-02-14T03:25:24.521Z,0.30
2019-02-14T03:28:32.097Z,0.40
2019-02-14T03:31:39.138Z,0.30
2019-02-14T03:34:46.210Z,0.10
2019-02-14T03:37:53.190Z,0.00
2019-02-14T03:41:00.887Z,0.00
2019-02-14T03:44:07.866Z,0.00
2019-02-14T03:47:14.886Z,0.00
2019-02-14T03:50:21.986Z,-0.10
2019-02-14T03:53:28.898Z,-0.10
2019-02-14T03:56:35.887Z,-0.20
2019-02-14T03:59:42.846Z,-0.30
2019-02-14T04:02:49.934Z,-0.30
2019-02-14T04:06:16.034Z,-0.10
2019-02-14T04:09:23.034Z,0.00
2019-02-14T04:12:30.152Z,0.00
2019-02-14T04:15:37.510Z,-0.20
2019-02-14T04:18:53.530Z,-0.20
2019-02-14T04:22:00.522Z,-0.20
2019-02-14T04:25:08.167Z,-0.30
2019-02-14T04:28:15.243Z,-0.30
2019-02-14T04:31:22.227Z,-0.40
2019-02-14T04:34:29.237Z,-0.40
2019-02-14T04:37:36.361Z,-0.60
2019-02-14T04:40:43.371Z,-0.70
2019-02-14T04:43:50.471Z,-0.70
2019-02-14T04:46:57.495Z,-0.70
2019-02-14T04:50:04.691Z,-0.70
2019-02-14T04:53:11.792Z,-0.70
2019-02-14T04:56:18.779Z,-0.70
2019-02-14T04:59:25.825Z,-0.60
2019-02-14T05:02:33.052Z,-0.50
2019-02-14T05:05:40.051Z,-0.50
2019-02-14T05:08:47.053Z,-0.40
2019-02-14T05:11:53.975Z,-0.50
2019-02-14T05:15:01.034Z,-0.60
2019-02-14T05:18:08.212Z,-0.70
2019-02-14T05:21:15.200Z,-0.70
2019-02-14T05:24:22.714Z,-0.70
2019-02-14T05:27:29.955Z,-0.70
2019-02-14T05:30:36.994Z,-0.80
2019-02-14T05:33:43.925Z,-0.80
2019-02-14T05:36:53.677Z,-0.80
2019-02-14T05:40:02.042Z,-0.60
2019-02-14T05:43:09.190Z,-0.60
2019-02-14T05:46:16.174Z,-0.50
2019-02-14T05:49:23.340Z,-0.50
2019-02-14T05:52:30.484Z,-0.60
2019-02-14T05:55:37.442Z,-0.70
2019-02-14T05:58:44.547Z,-0.70
2019-02-14T06:01:51.602Z,-0.70
2019-02-14T06:04:58.783Z,-0.70
2019-02-14T06:08:05.945Z,-0.80
2019-02-14T06:11:13.004Z,-0.80
2019-02-14T06:14:20.069Z,-0.80
2019-02-14T06:17:27.178Z,-0.50
2019-02-14T06:20:34.387Z,-0.50
2019-02-14T06:23:41.369Z,-0.50
2019-02-14T06:26:48.555Z,-0.60
2019-02-14T06:29:55.505Z,-0.60
2019-02-14T06:33:02.485Z,-0.50
2019-02-14T06:36:09.474Z,-0.50
2019-02-14T06:39:16.596Z,-0.60
2019-02-14T06:42:23.619Z,-0.70
2019-02-14T06:45:30.724Z,-0.70
2019-02-14T06:48:37.790Z,-0.70
2019-02-14T06:51:44.857Z,-0.50
2019-02-14T06:54:55.245Z,-0.40
2019-02-14T06:58:02.272Z,-0.20
2019-02-14T07:01:09.374Z,-0.10
2019-02-14T07:04:16.365Z,-0.10
2019-02-14T07:07:23.633Z,0.00
2019-02-14T07:10:30.613Z,0.00
2019-02-14T07:13:37.707Z,0.00
2019-02-14T07:16:44.806Z,0.00
2019-02-14T07:19:51.942Z,0.00
2019-02-14T07:22:59.116Z,-0.10
2019-02-14T07:26:06.181Z,0.20
2019-02-14T07:29:13.227Z,0.30
2019-02-14T07:32:20.369Z,0.10
2019-02-14T07:35:27.504Z,0.00
2019-02-14T07:38:34.630Z,0.10
2019-02-14T07:41:41.976Z,0.20
2019-02-14T07:44:48.910Z,0.30
2019-02-14T07:47:56.178Z,0.70
2019-02-14T07:51:09.255Z,0.70
2019-02-14T07:54:16.269Z,0.60
2019-02-14T07:57:23.714Z,0.70
2019-02-14T08:00:30.727Z,0.90
2019-02-14T08:03:37.732Z,1.30
2019-02-14T08:06:44.783Z,1.50
2019-02-14T08:09:51.987Z,1.70
2019-02-14T08:12:59.172Z,1.50
2019-02-14T08:16:06.349Z,1.40
2019-02-14T08:19:13.469Z,1.40
2019-02-14T08:22:20.659Z,1.20
2019-02-14T08:25:27.848Z,1.10
2019-02-14T08:28:34.907Z,1.20
2019-02-14T08:31:41.961Z,1.20
2019-02-14T08:34:48.962Z,1.20
2019-02-14T08:38:15.144Z,1.30
2019-02-14T08:41:22.191Z,1.30
2019-02-14T08:44:29.276Z,1.80
2019-02-14T08:47:40.424Z,1.80
2019-02-14T08:50:47.405Z,1.60
2019-02-14T08:53:54.598Z,1.90
2019-02-14T08:57:01.953Z,2.30
2019-02-14T09:00:10.964Z,2.20
2019-02-14T09:03:18.035Z,2.00
2019-02-14T09:06:25.083Z,2.20
2019-02-14T09:09:32.349Z,2.60
2019-02-14T09:12:39.454Z,2.60
2019-02-14T09:15:46.493Z,2.80
2019-02-14T09:18:53.522Z,3.10
2019-02-14T09:22:00.725Z,3.10
2019-02-14T09:25:07.971Z,3.30
2019-02-14T09:28:15.018Z,3.60
2019-02-14T09:31:22.161Z,4.10
2019-02-14T09:34:29.186Z,4.50
2019-02-14T09:37:36.284Z,4.60
2019-02-14T09:40:43.314Z,4.70
2019-02-14T09:43:50.459Z,4.80
2019-02-14T09:46:57.534Z,4.90
2019-02-14T09:50:05.647Z,4.90
2019-02-14T09:53:12.713Z,4.90
2019-02-14T09:56:20.358Z,4.80
2019-02-14T09:59:27.637Z,4.70
2019-02-14T10:02:35.531Z,5.30
2019-02-14T10:05:42.869Z,5.60
2019-02-14T10:08:53.006Z,5.50
2019-02-14T10:12:00.159Z,6.00
2019-02-14T10:15:10.029Z,7.40
2019-02-14T10:18:17.119Z,9.10
2019-02-14T10:21:24.274Z,9.30
2019-02-14T10:24:31.408Z,9.50
2019-02-14T10:27:38.791Z,9.70
2019-02-14T10:30:45.951Z,9.60
2019-02-14T10:33:53.063Z,10.20
2019-02-14T10:37:00.287Z,9.50
2019-02-14T10:40:09.248Z,9.10
2019-02-14T10:43:16.440Z,10.50
2019-02-14T10:46:25.878Z,11.90
2019-02-14T10:49:32.459Z,10.90
2019-02-14T10:52:39.919Z,12.90
2019-02-14T10:55:47.176Z,11.90
2019-02-14T10:58:54.037Z,10.50
2019-02-14T11:02:02.890Z,11.30
2019-02-14T11:05:10.360Z,11.70
2019-02-14T11:08:17.601Z,11.20
2019-02-14T11:11:24.595Z,11.60
2019-02-14T11:14:31.673Z,11.40
2019-02-14T11:17:38.807Z,10.70
2019-02-14T11:20:45.884Z,11.30
2019-02-14T11:24:11.930Z,11.70
2019-02-14T11:27:19.034Z,11.50
2019-02-14T11:30:26.314Z,11.30
2019-02-14T11:33:33.395Z,10.90
2019-02-14T11:36:40.474Z,10.60
2019-02-14T11:39:47.786Z,10.40
2019-02-14T11:42:54.891Z,10.40
2019-02-14T11:46:02.031Z,10.20
2019-02-14T11:49:09.059Z,10.20
2019-02-14T11:52:16.307Z,9.80
2019-02-14T11:55:23.446Z,9.70
2019-02-14T11:58:30.791Z,9.70
2019-02-14T12:01:40.813Z,9.70
2019-02-14T12:04:47.861Z,9.70
2019-02-14T12:07:55.124Z,9.80
2019-02-14T12:11:02.232Z,9.80
2019-02-14T12:14:09.443Z,9.60
2019-02-14T12:17:16.534Z,9.50
2019-02-14T12:20:23.472Z,9.50
2019-02-14T12:23:36.555Z,9.40
2019-02-14T12:26:43.618Z,9.20
2019-02-14T12:29:50.614Z,9.00
2019-02-14T12:32:57.711Z,8.90
2019-02-14T12:36:04.692Z,9.00
2019-02-14T12:39:11.867Z,9.00
2019-02-14T12:42:18.836Z,9.00
2019-02-14T12:45:26.262Z,9.00
2019-02-14T12:48:33.539Z,9.00
2019-02-14T12:51:59.864Z,8.90
2019-02-14T12:55:07.399Z,9.00
2019-02-14T12:58:14.576Z,9.00
2019-02-14T13:01:22.044Z,9.00
2019-02-14T13:04:29.243Z,9.00
2019-02-14T13:07:36.449Z,9.00
2019-02-14T13:10:43.507Z,9.10
2019-02-14T13:13:50.959Z,9.20
2019-02-14T13:16:59.877Z,9.10
2019-02-14T13:20:07.854Z,9.30
2019-02-14T13:23:14.947Z,9.30
2019-02-14T13:26:21.982Z,9.40
2019-02-14T13:29:29.416Z,9.40
2019-02-14T13:32:36.723Z,9.40
2019-02-14T13:35:44.480Z,9.40
2019-02-14T13:38:51.605Z,9.50
2019-02-14T13:41:58.994Z,9.50
2019-02-14T13:45:11.607Z,9.60
2019-02-14T13:48:18.982Z,9.70
2019-02-14T13:51:26.290Z,9.70
2019-02-14T13:54:33.886Z,9.80
2019-02-14T13:57:41.134Z,10.00
2019-02-14T14:00:48.528Z,10.10
2019-02-14T14:03:55.912Z,10.10
2019-02-14T14:07:03.383Z,10.20
2019-02-14T14:10:11.147Z,10.20
2019-02-14T14:13:18.425Z,10.30
2019-02-14T14:16:28.614Z,10.40
2019-02-14T14:19:35.965Z,10.30
2019-02-14T14:22:43.249Z,10.30
2019-02-14T14:25:50.728Z,10.40
2019-02-14T14:28:57.919Z,10.40
2019-02-14T14:32:05.154Z,10.40
2019-02-14T14:35:12.553Z,10.40
2019-02-14T14:38:20.044Z,10.40
2019-02-14T14:41:27.159Z,10.50
2019-02-14T14:44:39.334Z,10.50
2019-02-14T14:47:46.326Z,10.50
2019-02-14T14:50:53.341Z,10.40
2019-02-14T14:54:00.341Z,10.40
2019-02-14T14:57:07.579Z,10.40
2019-02-14T15:00:14.763Z,10.40
2019-02-14T15:03:21.744Z,10.40
2019-02-14T15:06:28.768Z,10.30
2019-02-14T15:09:35.973Z,10.20
2019-02-14T15:12:43.072Z,10.10
2019-02-14T15:15:50.096Z,10.10
2019-02-14T15:18:57.240Z,10.20
2019-02-14T15:22:04.315Z,10.20
2019-02-14T15:25:11.406Z,10.10
2019-02-14T15:28:18.431Z,10.10
2019-02-14T15:31:25.482Z,10.10
2019-02-14T15:34:32.606Z,10.10
2019-02-14T15:37:41.822Z,10.10
2019-02-14T15:40:48.424Z,10.00
2019-02-14T15:43:55.437Z,10.00
2019-02-14T15:47:02.490Z,10.00
2019-02-14T15:50:09.990Z,10.00
2019-02-14T15:53:19.077Z,9.90
2019-02-14T15:56:27.292Z,9.90
2019-02-14T15:59:34.540Z,9.80
2019-02-14T16:02:41.738Z,9.80
2019-02-14T16:05:48.792Z,9.80
2019-02-14T16:08:55.909Z,9.70
2019-02-14T16:12:03.146Z,9.60
2019-02-14T16:15:12.363Z,9.50
2019-02-14T16:18:21.122Z,9.40
2019-02-14T16:21:29.538Z,9.40
2019-02-14T16:24:38.708Z,9.20
2019-02-14T16:27:46.528Z,9.00
2019-02-14T16:30:56.825Z,8.90
2019-02-14T16:34:03.957Z,8.70
2019-02-14T16:37:11.137Z,8.50
2019-02-14T16:40:27.288Z,8.30
2019-02-14T16:43:27.120Z,8.20
2019-02-14T16:46:34.463Z,8.10
2019-02-14T16:49:41.670Z,8.00
2019-02-14T16:52:48.951Z,7.90
2019-02-14T16:56:02.138Z,7.70
2019-02-14T16:59:05.406Z,7.60
2019-02-14T17:02:12.839Z,7.40
2019-02-14T17:05:20.282Z,7.30
2019-02-14T17:08:27.944Z,7.00
2019-02-14T17:11:35.660Z,6.80
2019-02-14T17:14:42.866Z,6.70
2019-02-14T17:17:49.944Z,6.60
2019-02-14T17:20:56.985Z,6.40
2019-02-14T17:24:04.012Z,6.30
2019-02-14T17:27:11.107Z,6.10
2019-02-14T17:30:18.100Z,6.10
2019-02-14T17:33:28.196Z,6.00
2019-02-14T17:36:35.445Z,5.80
2019-02-14T17:39:42.472Z,5.60
2019-02-14T17:42:49.512Z,5.40
2019-02-14T17:45:56.686Z,5.30
2019-02-14T17:49:04.119Z,5.30
2019-02-14T17:52:11.316Z,5.30
2019-02-14T17:55:18.366Z,5.20
2019-02-14T17:58:25.761Z,5.00
2019-02-14T18:01:33.068Z,4.80
2019-02-14T18:04:40.326Z,4.70
2019-02-14T18:07:47.470Z,4.70
2019-02-14T18:10:55.260Z,4.60
2019-02-14T18:14:02.573Z,4.60
2019-02-14T18:17:09.770Z,4.60
2019-02-14T18:20:17.015Z,4.40
2019-02-14T18:23:24.240Z,4.30
2019-02-14T18:26:31.213Z,4.10
2019-02-14T18:29:38.312Z,3.90
2019-02-14T18:32:46.875Z,3.70
2019-02-14T18:35:53.996Z,3.70
2019-02-14T18:39:01.157Z,3.50
2019-02-14T18:42:08.459Z,3.30
2019-02-14T18:45:15.475Z,3.10
2019-02-14T18:48:22.792Z,3.00
2019-02-14T18:51:30.270Z,3.00
2019-02-14T18:54:37.648Z,2.90
2019-02-14T18:57:45.114Z,2.70
2019-02-14T19:00:52.313Z,2.60
2019-02-14T19:03:59.584Z,2.50
2019-02-14T19:07:11.124Z,2.50
2019-02-14T19:10:18.464Z,2.50
2019-02-14T19:13:26.177Z,2.40
2019-02-14T19:16:33.484Z,2.40
2019-02-14T19:19:40.668Z,2.40
2019-02-14T19:22:47.608Z,2.40
2019-02-14T19:25:54.513Z,2.40
2019-02-14T19:29:01.461Z,2.30
2019-02-14T19:32:08.429Z,2.20
2019-02-14T19:35:22.761Z,2.00
2019-02-14T19:38:24.812Z,1.80
2019-02-14T19:41:31.825Z,1.70
2019-02-14T19:44:39.249Z,1.70
2019-02-14T19:47:46.675Z,1.70
2019-02-14T19:50:55.448Z,1.80
2019-02-14T19:54:02.650Z,1.70
2019-02-14T19:57:10.209Z,1.50
2019-02-14T20:00:17.168Z,1.40
2019-02-14T20:03:24.266Z,1.30
2019-02-14T20:06:31.463Z,1.20
2019-02-14T20:09:41.445Z,1.20
2019-02-14T20:12:50.744Z,1.10
2019-02-14T20:15:58.207Z,1.10
2019-02-14T20:19:05.359Z,1.00
2019-02-14T20:22:15.019Z,1.00
2019-02-14T20:25:23.220Z,1.00
2019-02-14T20:28:30.485Z,0.90
2019-02-14T20:31:38.020Z,0.80
2019-02-14T20:34:45.725Z,0.70
2019-02-14T20:37:53.390Z,0.70
2019-02-14T20:41:00.419Z,0.70
2019-02-14T20:44:07.842Z,0.70
2019-02-14T20:47:17.975Z,0.70
2019-02-14T20:50:25.266Z,0.60
2019-02-14T20:53:32.727Z,0.50
2019-02-14T20:56:40.367Z,0.50
2019-02-14T20:59:47.543Z,0.50
2019-02-14T21:02:54.798Z,0.40
2019-02-14T21:06:02.376Z,0.40
2019-02-14T21:09:09.905Z,0.40
2019-02-14T21:12:17.279Z,0.40
2019-02-14T21:15:24.464Z,0.30
2019-02-14T21:18:31.902Z,0.30
2019-02-14T21:21:38.956Z,0.30
2019-02-14T21:24:50.487Z,0.30
2019-02-14T21:27:57.543Z,0.20
2019-02-14T21:31:04.438Z,0.10
2019-02-14T21:34:11.451Z,0.10
2019-02-14T21:37:18.397Z,0.10
2019-02-14T21:40:25.543Z,0.10
2019-02-14T21:43:32.704Z,0.10
2019-02-14T21:46:39.824Z,0.10
2019-02-14T21:49:47.193Z,0.00
2019-02-14T21:52:54.213Z,-0.10
2019-02-14T21:56:01.228Z,-0.10
2019-02-14T21:59:08.266Z,-0.20
2019-02-14T22:02:15.368Z,-0.20
2019-02-14T22:05:25.070Z,-0.30
2019-02-14T22:08:33.761Z,-0.30
2019-02-14T22:11:40.790Z,-0.30
2019-02-14T22:14:51.460Z,-0.30
2019-02-14T22:17:58.529Z,-0.30
2019-02-14T22:21:05.651Z,-0.20
2019-02-14T22:24:12.787Z,-0.30
2019-02-14T22:27:19.908Z,-0.40
2019-02-14T22:30:27.212Z,-0.50
2019-02-14T22:33:35.373Z,-0.50
2019-02-14T22:36:42.592Z,-0.60
2019-02-14T22:39:49.587Z,-0.60
2019-02-14T22:42:56.737Z,-0.60
2019-02-14T22:46:03.913Z,-0.60
2019-02-14T22:49:11.124Z,-0.60
2019-02-14T22:52:18.307Z,-0.60
2019-02-14T22:55:25.542Z,-0.50
2019-02-14T22:58:32.876Z,-0.60
2019-02-14T23:01:40.815Z,-0.60
2019-02-14T23:04:48.050Z,-0.70
2019-02-14T23:07:55.397Z,-0.70
2019-02-14T23:11:02.844Z,-0.60
2019-02-14T23:14:10.018Z,-0.70
2019-02-14T23:17:17.422Z,-0.80
2019-02-14T23:20:24.496Z,-0.80
2019-02-14T23:23:31.727Z,-0.80
2019-02-14T23:26:38.796Z,-0.80
2019-02-14T23:29:45.919Z,-0.90
2019-02-14T23:32:53.181Z,-0.90
2019-02-14T23:36:00.269Z,-0.90
2019-02-14T23:39:07.966Z,-1.00
2019-02-14T23:42:15.319Z,-1.00
2019-02-14T23:45:22.419Z,-1.00
2019-02-14T23:48:29.730Z,-1.00
2019-02-14T23:51:37.184Z,-1.00
2019-02-14T23:54:44.200Z,-1.00
2019-02-14T23:57:51.115Z,-1.10
